sensor_id;sensor_type;location;lat;lon;timestamp;pressure;altitude;pressure_sealevel;temperature;humidity
20156;BME280;10238;49.556;10.956;2023-08-30T00:00:49;97727.31;;;12.69;100.00
20156;BME280;10238;49.556;10.956;2023-08-30T00:03:37;97713.69;;;12.64;100.00
20156;BME280;10238;49.556;10.956;2023-08-30T00:06:25;97715.69;;;12.62;100.00
20156;BME280;10238;49.556;10.956;2023-08-30T00:09:13;97716.06;;;12.59;100.00
20156;BME280;10238;49.556;10.956;2023-08-30T00:12:00;97717.44;;;12.55;100.00
20156;BME280;10238;49.556;10.956;2023-08-30T00:14:48;97710.66;;;12.52;100.00
20156;BME280;10238;49.556;10.956;2023-08-30T00:17:37;97720.84;;;12.49;100.00
20156;BME280;10238;49.556;10.956;2023-08-30T00:20:25;97714.41;;;12.43;100.00
20156;BME280;10238;49.556;10.956;2023-08-30T00:23:13;97717.44;;;12.40;100.00
20156;BME280;10238;49.556;10.956;2023-08-30T00:26:00;97714.50;;;12.35;100.00
20156;BME280;10238;49.556;10.956;2023-08-30T00:28:48;97716.50;;;12.33;100.00
20156;BME280;10238;49.556;10.956;2023-08-30T00:31:35;97713.38;;;12.30;100.00
20156;BME280;10238;49.556;10.956;2023-08-30T00:34:24;97713.91;;;12.25;100.00
20156;BME280;10238;49.556;10.956;2023-08-30T00:37:12;97714.25;;;12.22;100.00
20156;BME280;10238;49.556;10.956;2023-08-30T00:40:00;97710.97;;;12.20;100.00
20156;BME280;10238;49.556;10.956;2023-08-30T00:42:48;97712.16;;;12.18;100.00
20156;BME280;10238;49.556;10.956;2023-08-30T00:45:39;97709.88;;;12.15;100.00
20156;BME280;10238;49.556;10.956;2023-08-30T00:48:28;97710.22;;;12.12;100.00
20156;BME280;10238;49.556;10.956;2023-08-30T00:51:17;97708.72;;;12.09;100.00
20156;BME280;10238;49.556;10.956;2023-08-30T00:54:06;97714.41;;;12.06;100.00
20156;BME280;10238;49.556;10.956;2023-08-30T00:56:54;97719.28;;;12.03;100.00
20156;BME280;10238;49.556;10.956;2023-08-30T00:59:42;97713.66;;;11.98;100.00
20156;BME280;10238;49.556;10.956;2023-08-30T01:02:30;97713.81;;;11.96;100.00
20156;BME280;10238;49.556;10.956;2023-08-30T01:05:18;97709.69;;;11.94;100.00
20156;BME280;10238;49.556;10.956;2023-08-30T01:08:07;97704.72;;;11.91;100.00
20156;BME280;10238;49.556;10.956;2023-08-30T01:11:04;97704.41;;;11.86;100.00
20156;BME280;10238;49.556;10.956;2023-08-30T01:14:00;97716.09;;;11.85;100.00
20156;BME280;10238;49.556;10.956;2023-08-30T01:16:49;97721.78;;;11.82;100.00
20156;BME280;10238;49.556;10.956;2023-08-30T01:19:47;97725.44;;;11.81;100.00
20156;BME280;10238;49.556;10.956;2023-08-30T01:22:45;97716.00;;;11.78;100.00
20156;BME280;10238;49.556;10.956;2023-08-30T01:25:50;97715.16;;;11.78;100.00
20156;BME280;10238;49.556;10.956;2023-08-30T01:28:42;97720.47;;;11.78;100.00
20156;BME280;10238;49.556;10.956;2023-08-30T01:31:32;97726.47;;;11.80;100.00
20156;BME280;10238;49.556;10.956;2023-08-30T01:34:21;97718.13;;;11.83;100.00
20156;BME280;10238;49.556;10.956;2023-08-30T01:37:10;97719.78;;;11.84;100.00
20156;BME280;10238;49.556;10.956;2023-08-30T01:40:01;97713.25;;;11.86;100.00
20156;BME280;10238;49.556;10.956;2023-08-30T01:42:51;97708.59;;;11.88;100.00
20156;BME280;10238;49.556;10.956;2023-08-30T01:45:43;97718.56;;;11.86;100.00
20156;BME280;10238;49.556;10.956;2023-08-30T01:48:32;97722.06;;;11.87;100.00
20156;BME280;10238;49.556;10.956;2023-08-30T01:51:21;97724.38;;;11.90;100.00
20156;BME280;10238;49.556;10.956;2023-08-30T01:54:13;97721.53;;;11.91;100.00
20156;BME280;10238;49.556;10.956;2023-08-30T01:57:04;97721.66;;;11.98;100.00
20156;BME280;10238;49.556;10.956;2023-08-30T01:59:52;97733.97;;;11.99;100.00
20156;BME280;10238;49.556;10.956;2023-08-30T02:02:41;97730.84;;;11.95;100.00
20156;BME280;10238;49.556;10.956;2023-08-30T02:05:29;97737.16;;;11.94;100.00
20156;BME280;10238;49.556;10.956;2023-08-30T02:08:18;97731.00;;;11.94;100.00
20156;BME280;10238;49.556;10.956;2023-08-30T02:11:19;97723.69;;;11.96;100.00
20156;BME280;10238;49.556;10.956;2023-08-30T02:14:11;97728.66;;;11.99;100.00
20156;BME280;10238;49.556;10.956;2023-08-30T02:17:03;97733.63;;;12.02;100.00
20156;BME280;10238;49.556;10.956;2023-08-30T02:19:53;97723.59;;;12.04;100.00
20156;BME280;10238;49.556;10.956;2023-08-30T02:22:41;97722.22;;;12.08;100.00
20156;BME280;10238;49.556;10.956;2023-08-30T02:25:28;97718.56;;;12.09;100.00
20156;BME280;10238;49.556;10.956;2023-08-30T02:28:16;97718.56;;;12.09;100.00
20156;BME280;10238;49.556;10.956;2023-08-30T02:31:03;97714.88;;;12.10;100.00
20156;BME280;10238;49.556;10.956;2023-08-30T02:33:51;97709.56;;;12.10;100.00
20156;BME280;10238;49.556;10.956;2023-08-30T02:36:40;97706.06;;;12.09;100.00
20156;BME280;10238;49.556;10.956;2023-08-30T02:39:28;97715.25;;;12.07;100.00
20156;BME280;10238;49.556;10.956;2023-08-30T02:42:15;97714.88;;;12.10;100.00
20156;BME280;10238;49.556;10.956;2023-08-30T02:45:04;97719.84;;;12.13;100.00
20156;BME280;10238;49.556;10.956;2023-08-30T02:47:55;97714.53;;;12.13;100.00
20156;BME280;10238;49.556;10.956;2023-08-30T02:50:43;97709.22;;;12.13;100.00
20156;BME280;10238;49.556;10.956;2023-08-30T02:53:32;97710.84;;;12.14;100.00
20156;BME280;10238;49.556;10.956;2023-08-30T02:56:20;97721.16;;;12.17;100.00
20156;BME280;10238;49.556;10.956;2023-08-30T02:59:07;97718.31;;;12.18;100.00
20156;BME280;10238;49.556;10.956;2023-08-30T03:01:55;97720.16;;;12.18;100.00
20156;BME280;10238;49.556;10.956;2023-08-30T03:04:43;97712.97;;;12.18;100.00
20156;BME280;10238;49.556;10.956;2023-08-30T03:07:30;97705.47;;;12.22;100.00
20156;BME280;10238;49.556;10.956;2023-08-30T03:10:19;97707.47;;;12.20;100.00
20156;BME280;10238;49.556;10.956;2023-08-30T03:13:07;97701.16;;;12.21;100.00
20156;BME280;10238;49.556;10.956;2023-08-30T03:15:54;97703.59;;;12.22;100.00
20156;BME280;10238;49.556;10.956;2023-08-30T03:18:43;97701.41;;;12.26;100.00
20156;BME280;10238;49.556;10.956;2023-08-30T03:21:31;97700.41;;;12.27;100.00
20156;BME280;10238;49.556;10.956;2023-08-30T03:24:18;97699.41;;;12.28;100.00
20156;BME280;10238;49.556;10.956;2023-08-30T03:27:07;97702.09;;;12.28;100.00
20156;BME280;10238;49.556;10.956;2023-08-30T03:29:55;97702.09;;;12.28;100.00
20156;BME280;10238;49.556;10.956;2023-08-30T03:32:43;97711.41;;;12.24;100.00
20156;BME280;10238;49.556;10.956;2023-08-30T03:35:34;97704.44;;;12.23;100.00
20156;BME280;10238;49.556;10.956;2023-08-30T03:38:22;97711.16;;;12.19;100.00
20156;BME280;10238;49.556;10.956;2023-08-30T03:41:11;97715.19;;;12.15;100.00
20156;BME280;10238;49.556;10.956;2023-08-30T03:44:00;97704.41;;;12.08;100.00
20156;BME280;10238;49.556;10.956;2023-08-30T03:46:48;97703.75;;;12.06;100.00
20156;BME280;10238;49.556;10.956;2023-08-30T03:49:36;97707.78;;;12.02;100.00
20156;BME280;10238;49.556;10.956;2023-08-30T03:52:24;97706.31;;;12.00;100.00
20156;BME280;10238;49.556;10.956;2023-08-30T03:55:11;97714.66;;;11.97;100.00
20156;BME280;10238;49.556;10.956;2023-08-30T03:57:59;97719.69;;;11.92;100.00
20156;BME280;10238;49.556;10.956;2023-08-30T04:00:48;97722.72;;;11.89;100.00
20156;BME280;10238;49.556;10.956;2023-08-30T04:03:35;97724.25;;;11.83;100.00
20156;BME280;10238;49.556;10.956;2023-08-30T04:06:25;97726.28;;;11.81;100.00
20156;BME280;10238;49.556;10.956;2023-08-30T04:09:12;97723.97;;;11.78;100.00
20156;BME280;10238;49.556;10.956;2023-08-30T04:12:00;97718.81;;;11.77;100.00
20156;BME280;10238;49.556;10.956;2023-08-30T04:14:47;97720.16;;;11.73;100.00
20156;BME280;10238;49.556;10.956;2023-08-30T04:17:36;97709.88;;;11.70;100.00
20156;BME280;10238;49.556;10.956;2023-08-30T04:20:24;97712.91;;;11.67;100.00
20156;BME280;10238;49.556;10.956;2023-08-30T04:23:12;97725.22;;;11.68;100.00
20156;BME280;10238;49.556;10.956;2023-08-30T04:25:59;97723.06;;;11.63;100.00
20156;BME280;10238;49.556;10.956;2023-08-30T04:28:47;97738.22;;;11.63;100.00
20156;BME280;10238;49.556;10.956;2023-08-30T04:31:34;97727.88;;;11.60;100.00
20156;BME280;10238;49.556;10.956;2023-08-30T04:34:23;97729.56;;;11.61;100.00
20156;BME280;10238;49.556;10.956;2023-08-30T04:37:11;97721.44;;;11.62;100.00
20156;BME280;10238;49.556;10.956;2023-08-30T04:39:58;97728.41;;;11.63;100.00
20156;BME280;10238;49.556;10.956;2023-08-30T04:42:46;97727.88;;;11.60;100.00
20156;BME280;10238;49.556;10.956;2023-08-30T04:45:34;97723.25;;;11.54;100.00
20156;BME280;10238;49.556;10.956;2023-08-30T04:48:22;97734.06;;;11.52;100.00
20156;BME280;10238;49.556;10.956;2023-08-30T04:51:12;97739.56;;;11.51;100.00
20156;BME280;10238;49.556;10.956;2023-08-30T04:53:59;97741.88;;;11.54;100.00
20156;BME280;10238;49.556;10.956;2023-08-30T04:56:47;97744.69;;;11.60;100.00
20156;BME280;10238;49.556;10.956;2023-08-30T04:59:35;97743.53;;;11.63;100.00
20156;BME280;10238;49.556;10.956;2023-08-30T05:02:24;97740.53;;;11.66;100.00
20156;BME280;10238;49.556;10.956;2023-08-30T05:05:11;97729.16;;;11.72;100.00
20156;BME280;10238;49.556;10.956;2023-08-30T05:08:01;97734.81;;;11.77;100.00
20156;BME280;10238;49.556;10.956;2023-08-30T05:10:49;97735.44;;;11.79;100.00
20156;BME280;10238;49.556;10.956;2023-08-30T05:13:36;97734.44;;;11.80;100.00
20156;BME280;10238;49.556;10.956;2023-08-30T05:16:24;97735.09;;;11.82;100.00
20156;BME280;10238;49.556;10.956;2023-08-30T05:19:12;97730.06;;;11.87;100.00
20156;BME280;10238;49.556;10.956;2023-08-30T05:22:00;97728.38;;;11.86;100.00
20156;BME280;10238;49.556;10.956;2023-08-30T05:24:49;97729.00;;;11.96;100.00
20156;BME280;10238;49.556;10.956;2023-08-30T05:27:36;97721.66;;;11.98;100.00
20156;BME280;10238;49.556;10.956;2023-08-30T05:30:24;97728.28;;;12.02;100.00
20156;BME280;10238;49.556;10.956;2023-08-30T05:33:11;97726.63;;;12.01;100.00
20156;BME280;10238;49.556;10.956;2023-08-30T05:35:59;97720.75;;;12.05;100.00
20156;BME280;10238;49.556;10.956;2023-08-30T05:38:47;97723.72;;;12.10;100.00
20156;BME280;10238;49.556;10.956;2023-08-30T05:41:36;97722.06;;;12.24;100.00
20156;BME280;10238;49.556;10.956;2023-08-30T05:44:24;97728.00;;;12.34;100.00
20156;BME280;10238;49.556;10.956;2023-08-30T05:47:11;97721.31;;;12.38;100.00
20156;BME280;10238;49.556;10.956;2023-08-30T05:50:01;97726.09;;;12.42;100.00
20156;BME280;10238;49.556;10.956;2023-08-30T05:52:49;97722.53;;;12.50;100.00
20156;BME280;10238;49.556;10.956;2023-08-30T05:55:37;97718.09;;;12.57;100.00
20156;BME280;10238;49.556;10.956;2023-08-30T05:58:26;97721.97;;;12.69;94.31
20156;BME280;10238;49.556;10.956;2023-08-30T06:01:17;97733.47;;;12.69;80.83
20156;BME280;10238;49.556;10.956;2023-08-30T06:04:06;97726.97;;;12.72;71.04
20156;BME280;10238;49.556;10.956;2023-08-30T06:06:53;97734.84;;;12.80;57.81
20156;BME280;10238;49.556;10.956;2023-08-30T06:09:42;97734.41;;;12.91;43.98
20156;BME280;10238;49.556;10.956;2023-08-30T06:12:30;97730.97;;;12.97;34.79
20156;BME280;10238;49.556;10.956;2023-08-30T06:15:20;97735.59;;;13.03;27.80
20156;BME280;10238;49.556;10.956;2023-08-30T06:18:08;97737.72;;;13.07;21.38
20156;BME280;10238;49.556;10.956;2023-08-30T06:20:56;97737.16;;;13.12;17.34
20156;BME280;10238;49.556;10.956;2023-08-30T06:23:44;97732.75;;;13.19;13.95
20156;BME280;10238;49.556;10.956;2023-08-30T06:26:31;97741.28;;;13.29;8.87
20156;BME280;10238;49.556;10.956;2023-08-30T06:29:19;97735.56;;;13.32;7.49
20156;BME280;10238;49.556;10.956;2023-08-30T06:32:08;97730.50;;;13.37;6.79
20156;BME280;10238;49.556;10.956;2023-08-30T06:35:01;97728.31;;;13.41;7.71
20156;BME280;10238;49.556;10.956;2023-08-30T06:37:49;97741.34;;;13.50;7.74
20156;BME280;10238;49.556;10.956;2023-08-30T06:40:37;97732.59;;;13.56;8.62
20156;BME280;10238;49.556;10.956;2023-08-30T06:43:29;97738.38;;;13.60;12.95
20156;BME280;10238;49.556;10.956;2023-08-30T06:46:17;97735.13;;;13.64;18.04
20156;BME280;10238;49.556;10.956;2023-08-30T06:49:07;97737.69;;;13.72;26.20
20156;BME280;10238;49.556;10.956;2023-08-30T06:51:56;97728.53;;;13.81;34.05
20156;BME280;10238;49.556;10.956;2023-08-30T06:54:43;97726.31;;;13.85;44.97
20156;BME280;10238;49.556;10.956;2023-08-30T06:57:31;97723.06;;;13.89;54.37
20156;BME280;10238;49.556;10.956;2023-08-30T07:00:20;97720.66;;;13.94;84.78
20156;BME280;10238;49.556;10.956;2023-08-30T07:03:08;97729.31;;;13.96;100.00
20156;BME280;10238;49.556;10.956;2023-08-30T07:05:57;97720.78;;;14.07;100.00
20156;BME280;10238;49.556;10.956;2023-08-30T07:08:45;97716.69;;;14.11;100.00
20156;BME280;10238;49.556;10.956;2023-08-30T07:11:34;97717.34;;;14.13;100.00
20156;BME280;10238;49.556;10.956;2023-08-30T07:14:21;97717.97;;;14.15;100.00
20156;BME280;10238;49.556;10.956;2023-08-30T07:17:09;97718.88;;;14.22;100.00
20156;BME280;10238;49.556;10.956;2023-08-30T07:19:57;97716.06;;;14.30;100.00
20156;BME280;10238;49.556;10.956;2023-08-30T07:22:46;97707.66;;;14.33;100.00
20156;BME280;10238;49.556;10.956;2023-08-30T07:25:34;97708.53;;;14.40;100.00
20156;BME280;10238;49.556;10.956;2023-08-30T07:28:23;97710.44;;;14.46;100.00
20156;BME280;10238;49.556;10.956;2023-08-30T07:31:12;97706.47;;;14.63;100.00
20156;BME280;10238;49.556;10.956;2023-08-30T07:34:12;97703.88;;;14.76;100.00
20156;BME280;10238;49.556;10.956;2023-08-30T07:37:02;97706.25;;;14.99;100.00
20156;BME280;10238;49.556;10.956;2023-08-30T07:39:52;97705.91;;;15.15;100.00
20156;BME280;10238;49.556;10.956;2023-08-30T07:42:41;97701.91;;;15.39;100.00
20156;BME280;10238;49.556;10.956;2023-08-30T07:45:29;97703.88;;;15.71;100.00
20156;BME280;10238;49.556;10.956;2023-08-30T07:48:17;97699.78;;;15.94;100.00
20156;BME280;10238;49.556;10.956;2023-08-30T07:51:05;97695.69;;;16.18;100.00
20156;BME280;10238;49.556;10.956;2023-08-30T07:53:53;97696.31;;;16.33;100.00
20156;BME280;10238;49.556;10.956;2023-08-30T07:56:42;97685.78;;;16.38;100.00
20156;BME280;10238;49.556;10.956;2023-08-30T07:59:32;97682.72;;;16.54;100.00
20156;BME280;10238;49.556;10.956;2023-08-30T08:02:20;97677.97;;;16.49;100.00
20156;BME280;10238;49.556;10.956;2023-08-30T08:05:08;97680.03;;;16.47;100.00
20156;BME280;10238;49.556;10.956;2023-08-30T08:08:00;97666.81;;;16.59;100.00
20156;BME280;10238;49.556;10.956;2023-08-30T08:10:48;97672.28;;;17.03;100.00
20156;BME280;10238;49.556;10.956;2023-08-30T08:13:38;97666.38;;;17.32;100.00
20156;BME280;10238;49.556;10.956;2023-08-30T08:16:27;97668.34;;;17.56;100.00
20156;BME280;10238;49.556;10.956;2023-08-30T08:19:14;97649.53;;;17.87;100.00
20156;BME280;10238;49.556;10.956;2023-08-30T08:22:03;97643.47;;;17.98;100.00
20156;BME280;10238;49.556;10.956;2023-08-30T08:24:51;97643.97;;;18.13;100.00
20156;BME280;10238;49.556;10.956;2023-08-30T08:27:40;97650.47;;;18.55;100.00
20156;BME280;10238;49.556;10.956;2023-08-30T08:30:29;97639.63;;;18.79;100.00
20156;BME280;10238;49.556;10.956;2023-08-30T08:33:17;97636.28;;;18.84;100.00
20156;BME280;10238;49.556;10.956;2023-08-30T08:36:05;97630.84;;;18.90;100.00
20156;BME280;10238;49.556;10.956;2023-08-30T08:38:52;97620.75;;;19.15;100.00
20156;BME280;10238;49.556;10.956;2023-08-30T08:41:42;97611.50;;;19.59;100.00
20156;BME280;10238;49.556;10.956;2023-08-30T08:44:32;97599.44;;;19.62;100.00
20156;BME280;10238;49.556;10.956;2023-08-30T08:47:23;97600.19;;;19.51;100.00
20156;BME280;10238;49.556;10.956;2023-08-30T08:50:11;97590.44;;;19.68;100.00
20156;BME280;10238;49.556;10.956;2023-08-30T08:53:00;97598.88;;;20.12;100.00
20156;BME280;10238;49.556;10.956;2023-08-30T08:55:49;97586.31;;;20.52;100.00
20156;BME280;10238;49.556;10.956;2023-08-30T08:58:38;97592.75;;;20.97;100.00
20156;BME280;10238;49.556;10.956;2023-08-30T09:01:28;97581.91;;;21.09;100.00
20156;BME280;10238;49.556;10.956;2023-08-30T09:04:24;97584.19;;;21.28;100.00
20156;BME280;10238;49.556;10.956;2023-08-30T09:07:12;97590.31;;;21.52;100.00
20156;BME280;10238;49.556;10.956;2023-08-30T09:10:00;97586.31;;;21.83;100.00
20156;BME280;10238;49.556;10.956;2023-08-30T09:12:49;97577.13;;;22.17;100.00
20156;BME280;10238;49.556;10.956;2023-08-30T09:15:38;97585.19;;;22.28;100.00
20156;BME280;10238;49.556;10.956;2023-08-30T09:18:25;97577.59;;;22.30;100.00
20156;BME280;10238;49.556;10.956;2023-08-30T09:21:15;97575.31;;;22.55;100.00
20156;BME280;10238;49.556;10.956;2023-08-30T09:24:05;97571.94;;;22.48;100.00
20156;BME280;10238;49.556;10.956;2023-08-30T09:26:54;97566.03;;;22.18;100.00
20156;BME280;10238;49.556;10.956;2023-08-30T09:29:42;97568.34;;;21.77;100.00
20156;BME280;10238;49.556;10.956;2023-08-30T09:32:38;97577.94;;;21.84;100.00
20156;BME280;10238;49.556;10.956;2023-08-30T09:35:26;97577.78;;;22.07;100.00
20156;BME280;10238;49.556;10.956;2023-08-30T09:38:19;97580.97;;;22.37;100.00
20156;BME280;10238;49.556;10.956;2023-08-30T09:41:06;97577.03;;;22.61;100.00
20156;BME280;10238;49.556;10.956;2023-08-30T09:43:55;97571.47;;;22.51;100.00
20156;BME280;10238;49.556;10.956;2023-08-30T09:46:59;97571.53;;;22.56;100.00
20156;BME280;10238;49.556;10.956;2023-08-30T09:49:49;97562.78;;;22.00;100.00
20156;BME280;10238;49.556;10.956;2023-08-30T09:52:40;97564.25;;;21.74;100.00
20156;BME280;10238;49.556;10.956;2023-08-30T09:55:30;97569.50;;;21.97;100.00
20156;BME280;10238;49.556;10.956;2023-08-30T09:58:20;97570.31;;;22.31;100.00
20156;BME280;10238;49.556;10.956;2023-08-30T10:01:09;97563.16;;;22.41;100.00
20156;BME280;10238;49.556;10.956;2023-08-30T10:03:58;97566.09;;;22.56;100.00
20156;BME280;10238;49.556;10.956;2023-08-30T10:06:48;97555.78;;;22.20;100.00
20156;BME280;10238;49.556;10.956;2023-08-30T10:09:38;97547.25;;;21.79;100.00
20156;BME280;10238;49.556;10.956;2023-08-30T10:12:46;97548.03;;;21.63;100.00
20156;BME280;10238;49.556;10.956;2023-08-30T10:16:01;97554.66;;;22.16;100.00
20156;BME280;10238;49.556;10.956;2023-08-30T10:19:02;97541.50;;;22.41;100.00
20156;BME280;10238;49.556;10.956;2023-08-30T10:22:00;97544.69;;;22.38;100.00
20156;BME280;10238;49.556;10.956;2023-08-30T10:24:54;97537.88;;;22.74;100.00
20156;BME280;10238;49.556;10.956;2023-08-30T10:27:58;97530.59;;;23.17;100.00
20156;BME280;10238;49.556;10.956;2023-08-30T10:30:46;97531.22;;;23.24;100.00
20156;BME280;10238;49.556;10.956;2023-08-30T10:33:47;97523.25;;;23.18;100.00
20156;BME280;10238;49.556;10.956;2023-08-30T10:36:35;97523.81;;;23.20;100.00
20156;BME280;10238;49.556;10.956;2023-08-30T10:39:34;97529.38;;;23.57;100.00
20156;BME280;10238;49.556;10.956;2023-08-30T10:42:23;97531.19;;;23.78;100.00
20156;BME280;10238;49.556;10.956;2023-08-30T10:45:12;97520.97;;;23.85;100.00
20156;BME280;10238;49.556;10.956;2023-08-30T10:48:00;97519.13;;;23.64;100.00
20156;BME280;10238;49.556;10.956;2023-08-30T10:50:48;97515.50;;;23.53;100.00
20156;BME280;10238;49.556;10.956;2023-08-30T10:53:40;97518.66;;;23.72;100.00
20156;BME280;10238;49.556;10.956;2023-08-30T10:56:29;97508.97;;;23.81;100.00
20156;BME280;10238;49.556;10.956;2023-08-30T10:59:18;97515.53;;;23.85;100.00
20156;BME280;10238;49.556;10.956;2023-08-30T11:02:08;97501.28;;;24.36;100.00
20156;BME280;10238;49.556;10.956;2023-08-30T11:04:57;97514.03;;;24.82;100.00
20156;BME280;10238;49.556;10.956;2023-08-30T11:07:46;97494.69;;;24.78;100.00
20156;BME280;10238;49.556;10.956;2023-08-30T11:10:35;97483.81;;;24.27;100.00
20156;BME280;10238;49.556;10.956;2023-08-30T11:13:23;97501.09;;;24.11;100.00
20156;BME280;10238;49.556;10.956;2023-08-30T11:16:11;97499.94;;;24.43;100.00
20156;BME280;10238;49.556;10.956;2023-08-30T11:19:01;97497.25;;;24.48;100.00
20156;BME280;10238;49.556;10.956;2023-08-30T11:21:49;97488.69;;;24.25;100.00
20156;BME280;10238;49.556;10.956;2023-08-30T11:24:37;97491.91;;;24.17;100.00
20156;BME280;10238;49.556;10.956;2023-08-30T11:27:25;97493.81;;;23.85;100.00
20156;BME280;10238;49.556;10.956;2023-08-30T11:30:13;97496.78;;;23.52;100.00
20156;BME280;10238;49.556;10.956;2023-08-30T11:33:02;97495.47;;;23.59;100.00
20156;BME280;10238;49.556;10.956;2023-08-30T11:35:52;97494.66;;;23.59;100.00
20156;BME280;10238;49.556;10.956;2023-08-30T11:38:41;97493.63;;;23.33;100.00
20156;BME280;10238;49.556;10.956;2023-08-30T11:41:30;97501.19;;;23.31;100.00
20156;BME280;10238;49.556;10.956;2023-08-30T11:44:19;97504.13;;;23.24;100.00
20156;BME280;10238;49.556;10.956;2023-08-30T11:47:07;97502.59;;;23.34;100.00
20156;BME280;10238;49.556;10.956;2023-08-30T11:49:57;97503.72;;;23.43;100.00
20156;BME280;10238;49.556;10.956;2023-08-30T11:52:47;97499.97;;;23.44;100.00
20156;BME280;10238;49.556;10.956;2023-08-30T11:55:37;97498.44;;;23.53;100.00
20156;BME280;10238;49.556;10.956;2023-08-30T11:58:25;97495.47;;;23.59;100.00
20156;BME280;10238;49.556;10.956;2023-08-30T12:01:14;97489.22;;;23.59;100.00
20156;BME280;10238;49.556;10.956;2023-08-30T12:04:10;97488.19;;;23.60;100.00
20156;BME280;10238;49.556;10.956;2023-08-30T12:06:58;97482.75;;;23.60;100.00
20156;BME280;10238;49.556;10.956;2023-08-30T12:09:47;97482.66;;;23.50;100.00
20156;BME280;10238;49.556;10.956;2023-08-30T12:12:35;97482.91;;;23.48;100.00
20156;BME280;10238;49.556;10.956;2023-08-30T12:15:24;97475.06;;;23.52;100.00
20156;BME280;10238;49.556;10.956;2023-08-30T12:18:14;97470.72;;;23.51;100.00
20156;BME280;10238;49.556;10.956;2023-08-30T12:21:03;97472.84;;;23.44;100.00
20156;BME280;10238;49.556;10.956;2023-08-30T12:24:00;97467.94;;;23.46;100.00
20156;BME280;10238;49.556;10.956;2023-08-30T12:26:51;97463.56;;;23.40;100.00
20156;BME280;10238;49.556;10.956;2023-08-30T12:29:39;97470.28;;;23.32;100.00
20156;BME280;10238;49.556;10.956;2023-08-30T12:32:27;97466.94;;;23.25;100.00
20156;BME280;10238;49.556;10.956;2023-08-30T12:35:15;97469.78;;;23.13;100.00
20156;BME280;10238;49.556;10.956;2023-08-30T12:38:03;97474.81;;;23.00;100.00
20156;BME280;10238;49.556;10.956;2023-08-30T12:40:52;97473.25;;;22.82;100.00
20156;BME280;10238;49.556;10.956;2023-08-30T12:43:41;97483.31;;;22.65;100.00
20156;BME280;10238;49.556;10.956;2023-08-30T12:46:29;97480.41;;;22.50;100.00
20156;BME280;10238;49.556;10.956;2023-08-30T12:49:16;97481.56;;;22.38;100.00
20156;BME280;10238;49.556;10.956;2023-08-30T12:52:05;97482.56;;;22.32;100.00
20156;BME280;10238;49.556;10.956;2023-08-30T12:54:53;97480.31;;;22.24;100.00
20156;BME280;10238;49.556;10.956;2023-08-30T12:57:41;97491.94;;;22.24;100.00
20156;BME280;10238;49.556;10.956;2023-08-30T13:00:32;97490.41;;;22.28;100.00
20156;BME280;10238;49.556;10.956;2023-08-30T13:03:19;97479.63;;;22.33;100.00
20156;BME280;10238;49.556;10.956;2023-08-30T13:06:10;97478.88;;;22.38;100.00
20156;BME280;10238;49.556;10.956;2023-08-30T13:08:58;97467.78;;;22.39;100.00
20156;BME280;10238;49.556;10.956;2023-08-30T13:11:45;97469.75;;;22.44;100.00
20156;BME280;10238;49.556;10.956;2023-08-30T13:14:33;97467.69;;;22.72;100.00
20156;BME280;10238;49.556;10.956;2023-08-30T13:17:22;97456.78;;;23.15;100.00
20156;BME280;10238;49.556;10.956;2023-08-30T13:20:10;97452.50;;;23.19;100.00
20156;BME280;10238;49.556;10.956;2023-08-30T13:22:58;97451.41;;;23.20;100.00
20156;BME280;10238;49.556;10.956;2023-08-30T13:25:45;97444.44;;;23.24;100.00
20156;BME280;10238;49.556;10.956;2023-08-30T13:28:35;97445.97;;;23.20;100.00
20156;BME280;10238;49.556;10.956;2023-08-30T13:31:22;97438.84;;;23.09;100.00
20156;BME280;10238;49.556;10.956;2023-08-30T13:34:12;97438.63;;;22.89;100.00
20156;BME280;10238;49.556;10.956;2023-08-30T13:36:59;97434.59;;;23.18;100.00
20156;BME280;10238;49.556;10.956;2023-08-30T13:39:47;97436.41;;;23.40;100.00
20156;BME280;10238;49.556;10.956;2023-08-30T13:42:34;97426.47;;;23.50;100.00
20156;BME280;10238;49.556;10.956;2023-08-30T13:45:27;97424.03;;;23.49;100.00
20156;BME280;10238;49.556;10.956;2023-08-30T13:48:14;97418.53;;;23.75;100.00
20156;BME280;10238;49.556;10.956;2023-08-30T13:51:03;97417.81;;;23.90;100.00
20156;BME280;10238;49.556;10.956;2023-08-30T13:53:52;97418.84;;;23.79;100.00
20156;BME280;10238;49.556;10.956;2023-08-30T13:56:40;97425.28;;;24.04;100.00
20156;BME280;10238;49.556;10.956;2023-08-30T13:59:27;97420.81;;;24.30;100.00
20156;BME280;10238;49.556;10.956;2023-08-30T14:02:16;97418.78;;;24.62;100.00
20156;BME280;10238;49.556;10.956;2023-08-30T14:05:08;97411.47;;;24.67;87.77
20156;BME280;10238;49.556;10.956;2023-08-30T14:07:57;97416.91;;;24.11;92.54
20156;BME280;10238;49.556;10.956;2023-08-30T14:10:45;97424.59;;;24.29;94.30
20156;BME280;10238;49.556;10.956;2023-08-30T14:13:32;97419.63;;;24.16;96.59
20156;BME280;10238;49.556;10.956;2023-08-30T14:16:20;97427.25;;;24.14;100.00
20156;BME280;10238;49.556;10.956;2023-08-30T14:19:15;97423.47;;;24.20;100.00
20156;BME280;10238;49.556;10.956;2023-08-30T14:22:03;97419.22;;;24.39;100.00
20156;BME280;10238;49.556;10.956;2023-08-30T14:24:53;97419.31;;;24.59;100.00
20156;BME280;10238;49.556;10.956;2023-08-30T14:27:57;97417.63;;;24.48;94.27
20156;BME280;10238;49.556;10.956;2023-08-30T14:30:47;97429.34;;;24.02;94.79
20156;BME280;10238;49.556;10.956;2023-08-30T14:33:34;97427.50;;;23.76;94.25